Time;durP1;ratioP1;P1;durP2;ratioP2;P2;SDS_P1;SDS_P2;PMS_P1;PMS_P2;Temp;Humidity;BMP_temperature;BMP_pressure;BME280_temperature;BME280_humidity;BME280_pressure;Samples;Min_cycle;Max_cycle;Signal;HPM_P1;HPM_P2
2021/03/21 00:00:49;;;;;;;4.38;2.80;;;;;;;2.58;62.91;100915.44;4987170;28;20281;-51
2021/03/21 00:03:17;;;;;;;3.88;2.78;;;;;;;2.65;63.21;100910.84;4988572;28;20050;-48
2021/03/21 00:05:43;;;;;;;5.68;3.17;;;;;;;2.66;63.50;100922.72;4986694;28;20464;-51
2021/03/21 00:08:20;;;;;;;7.05;3.40;;;;;;;2.64;63.21;100919.22;4987827;28;20050;-51
2021/03/21 00:10:50;;;;;;;;;;;;;;;2.60;64.28;100911.38;4987076;28;20050;-53
2021/03/21 00:13:18;;;;;;;6.20;3.40;;;;;;;2.65;64.46;100905.81;4991125;28;19922;-52
2021/03/21 00:15:45;;;;;;;5.57;3.30;;;;;;;2.67;64.42;100908.41;4986448;28;20149;-52
2021/03/21 00:18:12;;;;;;;7.32;3.72;;;;;;;2.69;64.00;100906.88;4987572;28;20057;-50
2021/03/21 00:20:39;;;;;;;5.47;3.33;;;;;;;2.72;64.38;100897.78;4987084;28;20061;-52
2021/03/21 00:23:06;;;;;;;4.35;2.92;;;;;;;2.78;64.07;100902.38;4987299;28;20385;-52
2021/03/21 00:25:35;;;;;;;4.95;3.53;;;;;;;2.77;64.84;100893.91;4987334;28;20048;-50
2021/03/21 00:28:09;;;;;;;6.40;3.58;;;;;;;2.84;64.11;100897.66;4986843;28;20046;-48
2021/03/21 00:30:40;;;;;;;6.30;4.05;;;;;;;2.71;65.12;100896.03;4991265;28;20073;-54
2021/03/21 00:33:09;;;;;;;6.13;3.40;;;;;;;2.73;65.06;100889.44;4987196;28;20042;-53
2021/03/21 00:35:36;;;;;;;5.95;3.20;;;;;;;2.75;64.64;100875.22;4986598;28;20050;-54
2021/03/21 00:38:22;;;;;;;7.05;3.45;;;;;;;2.71;65.34;100875.81;4986465;28;20050;-53
2021/03/21 00:40:49;;;;;;;8.20;4.10;;;;;;;2.77;65.50;100868.63;4986500;28;20039;-50
2021/03/21 00:43:17;;;;;;;5.57;4.38;;;;;;;2.84;65.16;100866.44;4988016;28;20050;-53
2021/03/21 00:45:43;;;;;;;5.55;3.05;;;;;;;2.81;65.48;100860.41;4986367;28;20050;-52
2021/03/21 00:48:19;;;;;;;6.18;3.72;;;;;;;2.77;65.09;100863.56;4987757;28;20046;-49
2021/03/21 00:50:46;;;;;;;;;;;;;;;2.83;65.32;100847.00;4986832;28;20042;-48
2021/03/21 00:53:13;;;;;;;6.90;4.20;;;;;;;2.86;65.69;100842.97;4992543;28;20295;-51
2021/03/21 00:55:40;;;;;;;7.22;3.63;;;;;;;2.86;65.49;100832.00;4986858;28;20057;-50
2021/03/21 00:58:09;;;;;;;6.00;3.53;;;;;;;2.89;65.47;100834.72;4990064;28;20123;-49
2021/03/21 01:00:40;;;;;;;6.63;3.55;;;;;;;2.76;66.32;100823.88;4990834;28;20042;-51
2021/03/21 01:03:07;;;;;;;6.00;3.60;;;;;;;2.92;65.84;100818.06;4991510;28;20038;-50
2021/03/21 01:05:39;;;;;;;6.15;3.80;;;;;;;2.91;65.86;100813.81;4990765;28;20497;-52
2021/03/21 01:08:22;;;;;;;5.80;3.65;;;;;;;2.89;66.02;100805.25;4990542;28;20050;-48
2021/03/21 01:10:52;;;;;;;6.82;4.03;;;;;;;2.89;66.04;100797.66;4990054;28;20050;-55
2021/03/21 01:13:19;;;;;;;6.10;3.90;;;;;;;2.92;66.49;100802.03;4991591;28;20444;-54
2021/03/21 01:15:46;;;;;;;7.18;4.07;;;;;;;2.90;66.16;100799.38;4989914;28;20456;-54
2021/03/21 01:18:30;;;;;;;5.82;3.95;;;;;;;2.97;66.84;100795.56;4994629;28;20133;-51
2021/03/21 01:20:57;;;;;;;7.05;3.83;;;;;;;3.01;66.72;100785.72;4989903;28;20183;-54
2021/03/21 01:23:24;;;;;;;6.47;4.22;;;;;;;3.05;66.83;100782.59;4991626;28;20420;-52
2021/03/21 01:25:51;;;;;;;7.00;4.47;;;;;;;3.01;67.31;100779.78;4989605;28;20393;-51
2021/03/21 01:28:27;;;;;;;6.40;4.57;;;;;;;3.04;67.75;100763.09;4991001;28;20053;-48
2021/03/21 01:30:57;;;;;;;7.25;3.97;;;;;;;2.96;69.19;100766.88;4989584;28;20496;-49
2021/03/21 01:33:29;;;;;;;6.57;4.10;;;;;;;3.00;69.43;100756.13;4990722;28;20484;-51
2021/03/21 01:35:56;;;;;;;7.22;4.95;;;;;;;3.08;69.79;100754.03;4989561;28;20627;-51
2021/03/21 01:38:23;;;;;;;6.80;4.60;;;;;;;2.96;70.00;100738.19;4991118;28;20489;-54
2021/03/21 01:40:55;;;;;;;7.20;4.43;;;;;;;3.05;70.40;100747.16;4989366;28;20073;-49
2021/03/21 01:43:35;;;;;;;8.32;4.35;;;;;;;3.06;70.99;100748.03;4990949;28;20038;-53
2021/03/21 01:46:03;;;;;;;7.55;5.10;;;;;;;3.10;71.25;100739.84;4989048;28;20053;-49
2021/03/21 01:48:45;;;;;;;9.02;4.90;;;;;;;3.01;71.85;100745.25;4993700;28;20506;-54
2021/03/21 01:51:17;;;;;;;8.25;5.68;;;;;;;3.09;72.44;100734.66;4990320;28;20049;-51
2021/03/21 01:53:46;;;;;;;8.35;5.45;;;;;;;2.92;74.48;100731.22;4989555;28;20050;-52
2021/03/21 01:56:13;;;;;;;9.27;5.45;;;;;;;2.90;75.30;100728.56;4990105;28;20055;-51
2021/03/21 01:58:45;;;;;;;10.38;5.72;;;;;;;2.95;75.85;100716.19;4989828;28;20050;-49
2021/03/21 02:01:22;;;;;;;10.23;6.28;;;;;;;2.99;75.91;100703.81;4990407;28;20057;-52
2021/03/21 02:03:50;;;;;;;10.60;5.82;;;;;;;3.11;76.54;100705.28;4989398;28;20484;-55
2021/03/21 02:06:27;;;;;;;8.10;5.78;;;;;;;2.94;77.76;100704.34;4990457;28;20050;-49
2021/03/21 02:09:01;;;;;;;8.50;6.10;;;;;;;3.03;77.74;100699.78;4988005;28;20050;-49
2021/03/21 02:11:48;;;;;;;10.40;6.35;;;;;;;3.01;78.28;100692.13;4990306;28;20415;-48
2021/03/21 02:14:21;;;;;;;10.27;6.07;;;;;;;3.03;78.98;100692.19;4990461;28;20401;-52
2021/03/21 02:16:58;;;;;;;9.00;6.75;;;;;;;3.14;78.86;100680.13;4988490;28;20057;-54
2021/03/21 02:19:44;;;;;;;9.52;7.22;;;;;;;3.02;80.95;100675.28;4990199;28;20042;-52
2021/03/21 02:22:15;;;;;;;;;;;;;;;3.01;81.56;100678.63;4990667;28;20041;-53
2021/03/21 02:25:13;;;;;;;16.42;7.43;;;;;;;2.94;82.50;100669.78;4988882;28;20442;-52
2021/03/21 02:27:50;;;;;;;13.98;7.75;;;;;;;3.11;82.36;100664.81;4987444;28;20042;-50
2021/03/21 02:30:51;;;;;;;13.18;7.68;;;;;;;2.91;85.27;100651.03;4989878;28;20038;-50
2021/03/21 02:33:29;;;;;;;15.07;7.85;;;;;;;3.01;84.85;100654.19;4949986;28;20133;-48
2021/03/21 02:36:17;;;;;;;13.95;8.25;;;;;;;3.00;86.33;100649.03;4988383;28;20543;-50
2021/03/21 02:38:49;;;;;;;16.02;8.40;;;;;;;2.81;87.88;100637.88;4988517;28;20420;-52
2021/03/21 02:41:35;;;;;;;13.38;9.10;;;;;;;2.72;90.20;100637.38;4989060;28;20553;-50
2021/03/21 02:44:11;;;;;;;15.27;10.40;;;;;;;2.74;90.70;100643.41;4988358;28;20050;-54
2021/03/21 02:46:42;;;;;;;16.80;10.43;;;;;;;2.81;91.05;100634.50;4992743;28;20046;-52
2021/03/21 02:49:17;;;;;;;16.63;10.85;;;;;;;2.79;91.25;100626.84;4988850;28;20077;-52
2021/03/21 02:51:48;;;;;;;16.80;10.40;;;;;;;2.89;90.98;100627.34;4988188;28;20050;-51
2021/03/21 02:54:25;;;;;;;16.95;10.45;;;;;;;2.87;91.58;100626.41;4990074;28;20519;-49
2021/03/21 02:56:59;;;;;;;15.05;10.20;;;;;;;2.89;91.44;100618.09;4987917;28;20050;-51
2021/03/21 02:59:32;;;;;;;20.80;10.38;;;;;;;2.91;91.37;100606.41;4989713;28;20511;-52
2021/03/21 03:02:09;;;;;;;16.05;10.63;;;;;;;2.77;92.35;100602.22;4988282;28;20432;-49
2021/03/21 03:04:48;;;;;;;16.48;10.55;;;;;;;2.81;92.83;100594.91;4992818;28;20129;-53
2021/03/21 03:07:32;;;;;;;17.55;11.40;;;;;;;2.84;93.25;100585.75;4989770;28;20384;-52
2021/03/21 03:10:06;;;;;;;20.48;11.30;;;;;;;2.88;92.91;100591.06;4988094;28;20429;-51
2021/03/21 03:12:38;;;;;;;17.35;11.32;;;;;;;2.96;93.80;100586.44;4992833;28;20049;-49
2021/03/21 03:15:08;;;;;;;17.42;11.30;;;;;;;2.93;94.24;100593.84;4988589;28;20050;-50
2021/03/21 03:17:41;;;;;;;20.83;12.23;;;;;;;2.89;95.12;100586.88;4987934;28;20050;-48
2021/03/21 03:20:14;;;;;;;19.45;12.18;;;;;;;2.94;96.18;100578.75;4988417;28;20042;-51
2021/03/21 03:23:09;;;;;;;20.33;12.40;;;;;;;2.90;97.24;100579.38;4987590;28;20046;-51
2021/03/21 03:25:44;;;;;;;20.60;13.27;;;;;;;2.83;98.19;100571.38;4991938;28;20421;-53
2021/03/21 03:28:19;;;;;;;25.23;14.55;;;;;;;2.89;98.96;100569.19;4988890;28;20046;-50
2021/03/21 03:30:48;;;;;;;22.00;14.40;;;;;;;2.81;99.29;100562.03;4987515;28;20053;-52
2021/03/21 03:33:15;;;;;;;20.55;13.80;;;;;;;2.87;99.94;100555.59;4993717;28;20042;-53
2021/03/21 03:35:42;;;;;;;20.00;13.20;;;;;;;2.95;100.00;100544.22;4987443;28;20070;-50
2021/03/21 03:38:10;;;;;;;23.40;13.13;;;;;;;2.96;100.00;100546.84;4988736;28;20046;-54
2021/03/21 03:40:38;;;;;;;22.98;14.13;;;;;;;3.02;100.00;100547.16;4987965;28;20046;-51
2021/03/21 03:43:44;;;;;;;24.08;13.57;;;;;;;2.93;100.00;100539.09;4987839;28;20046;-52
2021/03/21 03:46:29;;;;;;;23.92;14.00;;;;;;;2.83;100.00;100534.31;4988215;28;20050;-53
2021/03/21 03:49:11;;;;;;;24.27;15.18;;;;;;;2.88;100.00;100532.91;4986951;28;20101;-51
2021/03/21 03:51:54;;;;;;;27.67;14.18;;;;;;;3.02;100.00;100531.13;4992083;28;20100;-53
2021/03/21 03:54:47;;;;;;;25.30;15.60;;;;;;;2.91;100.00;100524.59;4988119;28;20058;-53
2021/03/21 03:57:16;;;;;;;26.20;15.25;;;;;;;2.94;100.00;100518.06;4989066;28;20049;-50
2021/03/21 04:00:21;;;;;;;27.73;15.93;;;;;;;3.01;100.00;100514.22;4987043;28;20046;-52
2021/03/21 04:02:58;;;;;;;26.65;14.82;;;;;;;3.00;100.00;100513.31;4979667;28;20042;-54
2021/03/21 04:05:56;;;;;;;27.80;16.38;;;;;;;3.08;100.00;100517.91;4988822;28;20057;-49
2021/03/21 04:08:39;;;;;;;24.85;15.65;;;;;;;2.95;100.00;100511.34;4988652;28;20053;-51
2021/03/21 04:11:20;;;;;;;21.83;14.45;;;;;;;3.10;100.00;100498.63;4987506;28;20038;-50
2021/03/21 04:13:57;;;;;;;25.17;16.08;;;;;;;3.08;100.00;100493.50;4987015;28;20229;-51
2021/03/21 04:16:30;;;;;;;26.92;15.48;;;;;;;3.08;100.00;100483.38;4987251;28;20044;-48
2021/03/21 04:19:04;;;;;;;28.98;15.90;;;;;;;3.09;100.00;100480.03;4987045;28;20054;-50
2021/03/21 04:21:37;;;;;;;25.40;15.15;;;;;;;3.18;100.00;100479.66;4991472;28;20057;-50
2021/03/21 04:24:13;;;;;;;26.23;16.05;;;;;;;3.06;100.00;100473.19;4987082;28;20057;-50
2021/03/21 04:26:55;;;;;;;24.55;14.75;;;;;;;3.25;100.00;100471.59;4987068;28;20047;-52
2021/03/21 04:29:32;;;;;;;25.73;14.23;;;;;;;3.28;100.00;100462.50;4988457;28;20042;-51
2021/03/21 04:32:06;;;;;;;24.17;14.40;;;;;;;3.21;100.00;100459.59;4991243;28;20596;-52
2021/03/21 04:34:36;;;;;;;23.57;14.13;;;;;;;3.24;100.00;100460.63;4991678;28;20371;-51
2021/03/21 04:37:04;;;;;;;24.08;12.93;;;;;;;3.30;100.00;100460.06;4987097;28;20467;-51
2021/03/21 04:39:35;;;;;;;20.33;12.50;;;;;;;3.22;100.00;100454.59;4991567;28;20056;-49
2021/03/21 04:42:10;;;;;;;23.75;14.05;;;;;;;3.29;100.00;100438.06;4986985;28;20050;-53
2021/03/21 04:44:51;;;;;;;24.30;14.02;;;;;;;3.22;100.00;100441.94;4991251;28;20054;-51
2021/03/21 04:47:25;;;;;;;23.50;14.02;;;;;;;3.34;100.00;100444.25;4992551;28;20502;-53
2021/03/21 04:49:57;;;;;;;27.48;15.18;;;;;;;3.29;100.00;100435.53;4986581;28;20093;-52
2021/03/21 04:52:42;;;;;;;30.33;16.05;;;;;;;3.27;100.00;100427.00;4988373;28;20902;-50
2021/03/21 04:55:29;;;;;;;23.85;14.85;;;;;;;3.37;100.00;100430.84;4988145;28;20054;-52
2021/03/21 04:57:57;;;;;;;26.30;13.70;;;;;;;3.30;100.00;100420.44;4986961;28;20058;-52
2021/03/21 05:00:38;;;;;;;26.98;16.27;;;;;;;3.27;100.00;100425.31;4991472;28;20057;-49
2021/03/21 05:03:23;;;;;;;26.30;17.10;;;;;;;3.37;100.00;100425.78;4986740;28;20480;-56
2021/03/21 05:05:58;;;;;;;25.98;15.90;;;;;;;3.38;100.00;100413.22;4986067;28;20050;-52
2021/03/21 05:08:31;;;;;;;29.92;16.73;;;;;;;3.28;100.00;100414.44;4988034;28;20046;-52
2021/03/21 05:11:02;;;;;;;24.27;14.15;;;;;;;3.31;100.00;100416.22;4986622;28;20429;-49
2021/03/21 05:13:56;;;;;;;23.15;13.55;;;;;;;3.34;100.00;100413.00;4990877;28;20050;-49
2021/03/21 05:17:24;;;;;;;26.23;15.48;;;;;;;3.37;100.00;100405.53;4986850;28;20519;-49
2021/03/21 05:20:15;;;;;;;37.58;23.40;;;;;;;3.35;100.00;100412.19;4913474;29;20043;-49
2021/03/21 05:22:49;;;;;;;28.02;16.60;;;;;;;3.39;100.00;100403.97;4986547;28;20042;-49
2021/03/21 05:25:25;;;;;;;24.45;15.02;;;;;;;3.49;100.00;100401.09;4987996;28;20034;-50
2021/03/21 05:28:00;;;;;;;23.13;14.25;;;;;;;3.50;100.00;100403.69;4986464;28;20046;-49
2021/03/21 05:30:32;;;;;;;22.73;14.50;;;;;;;3.47;100.00;100395.97;4987878;28;20053;-49
2021/03/21 05:32:59;;;;;;;23.15;14.32;;;;;;;3.63;100.00;100397.56;4985943;28;20046;-53
2021/03/21 05:35:36;;;;;;;19.60;12.57;;;;;;;3.56;100.00;100393.03;4987595;28;20073;-54
2021/03/21 05:38:33;;;;;;;23.60;14.20;;;;;;;3.51;100.00;100392.81;4986203;28;20062;-48
2021/03/21 05:41:17;;;;;;;20.77;12.50;;;;;;;3.55;100.00;100391.25;4986117;28;20054;-48
2021/03/21 05:43:58;;;;;;;20.60;13.55;;;;;;;3.73;100.00;100392.16;4988032;28;20046;-52
2021/03/21 05:46:31;;;;;;;19.63;11.75;;;;;;;3.80;100.00;100390.81;4995936;28;20046;-52
2021/03/21 05:49:20;;;;;;;19.00;11.93;;;;;;;3.73;100.00;100376.09;4996903;28;20057;-49
2021/03/21 05:52:27;;;;;;;16.20;11.23;;;;;;;3.71;100.00;100388.69;4996745;28;20046;-51
2021/03/21 05:55:24;;;;;;;18.50;10.70;;;;;;;3.79;100.00;100381.44;4995277;28;20492;-53
2021/03/21 05:58:15;;;;;;;18.88;9.82;;;;;;;3.96;100.00;100383.13;4997182;28;20042;-52
2021/03/21 06:01:07;;;;;;;18.23;10.43;;;;;;;3.91;100.00;100376.97;4996195;28;20053;-52
2021/03/21 06:04:12;;;;;;;16.02;9.05;;;;;;;3.98;100.00;100365.47;4998360;28;20081;-50
2021/03/21 06:07:06;;;;;;;15.00;9.65;;;;;;;4.00;100.00;100376.53;4998722;28;20061;-48
2021/03/21 06:10:20;;;;;;;15.52;9.05;;;;;;;4.07;100.00;100368.44;4998278;28;20060;-48
2021/03/21 06:13:16;;;;;;;11.98;8.43;;;;;;;4.05;100.00;100373.41;4995126;28;20843;-51
2021/03/21 06:15:49;;;;;;;13.68;8.98;;;;;;;4.14;100.00;100367.91;4993259;28;20050;-54
2021/03/21 06:18:31;;;;;;;13.70;8.70;;;;;;;4.10;100.00;100366.03;4990924;28;20049;-51
2021/03/21 06:21:10;;;;;;;13.93;8.85;;;;;;;4.31;100.00;100364.50;4993123;28;20077;-50
2021/03/21 06:23:48;;;;;;;11.05;7.63;;;;;;;4.40;100.00;100358.97;4993877;28;20045;-54
2021/03/21 06:26:23;;;;;;;14.88;8.38;;;;;;;4.43;100.00;100353.16;4991181;28;20535;-52
2021/03/21 06:28:55;;;;;;;10.75;6.97;;;;;;;4.34;100.00;100353.59;4991995;28;20315;-51
2021/03/21 06:31:48;;;;;;;10.45;7.03;;;;;;;4.45;100.00;100349.03;4996233;28;20109;-55
2021/03/21 06:34:55;;;;;;;10.68;6.90;;;;;;;4.32;100.00;100348.47;4989592;28;20126;-54
2021/03/21 06:37:39;;;;;;;;;;;;;;;4.51;100.00;100349.28;4994666;28;20052;-50
2021/03/21 06:40:31;;;;;;;9.73;5.97;;;;;;;4.66;100.00;100337.28;4991658;28;19929;-53
2021/03/21 06:43:26;;;;;;;8.00;5.78;;;;;;;4.54;100.00;100340.16;4993118;28;20050;-51
2021/03/21 06:46:26;;;;;;;9.32;5.70;;;;;;;4.60;100.00;100340.44;4990926;28;20057;-52
2021/03/21 06:49:28;;;;;;;9.25;5.93;;;;;;;4.59;100.00;100342.91;4991289;28;20531;-54
2021/03/21 06:52:19;;;;;;;7.80;5.35;;;;;;;4.59;100.00;100337.84;4992256;28;20046;-53
2021/03/21 06:54:54;;;;;;;9.55;6.05;;;;;;;4.62;100.00;100337.06;4988807;28;20452;-53
2021/03/21 06:57:26;;;;;;;8.48;6.00;;;;;;;4.69;100.00;100339.09;4992896;28;20045;-52
2021/03/21 07:00:28;;;;;;;8.68;5.53;;;;;;;4.69;100.00;100342.50;4992396;28;20050;-48
2021/03/21 07:02:54;;;;;;;8.02;5.47;;;;;;;4.66;100.00;100342.34;4990511;28;20415;-46
2021/03/21 07:05:40;;;;;;;8.07;5.90;;;;;;;4.73;100.00;100336.75;4986784;28;20051;-48
2021/03/21 07:08:36;;;;;;;8.67;5.40;;;;;;;4.92;100.00;100343.50;4989960;28;20054;-51
2021/03/21 07:11:40;;;;;;;7.43;5.10;;;;;;;4.88;100.00;100333.16;4949917;28;20412;-48
2021/03/21 07:14:15;;;;;;;7.47;5.40;;;;;;;4.85;100.00;100328.78;4991079;28;20038;-48
2021/03/21 07:17:17;;;;;;;7.70;5.05;;;;;;;4.95;100.00;100328.41;4989705;28;20421;-46
2021/03/21 07:19:47;;;;;;;6.47;4.47;;;;;;;5.13;100.00;100335.03;4953794;28;20544;-48
2021/03/21 07:22:36;;;;;;;8.02;4.90;;;;;;;5.06;100.00;100323.78;4992158;28;20053;-48
2021/03/21 07:25:40;;;;;;;10.63;6.65;;;;;;;4.92;100.00;100322.31;4991299;28;20132;-51
2021/03/21 07:28:43;;;;;;;8.88;4.43;;;;;;;5.20;100.00;100317.59;4991149;28;20049;-48
2021/03/21 07:31:34;;;;;;;6.05;4.45;;;;;;;5.19;100.00;100318.41;4988796;28;20050;-47
2021/03/21 07:34:38;;;;;;;5.55;3.90;;;;;;;5.22;100.00;100322.72;4994513;28;20119;-46
2021/03/21 07:37:37;;;;;;;7.25;4.88;;;;;;;5.28;100.00;100313.69;4993590;28;20040;-49
2021/03/21 07:40:27;;;;;;;5.13;3.72;;;;;;;5.57;100.00;100308.91;4989584;28;20141;-47
2021/03/21 07:43:05;;;;;;;3.85;3.42;;;;;;;5.66;100.00;100311.81;4988704;28;20050;-47
2021/03/21 07:45:40;;;;;;;4.15;3.25;;;;;;;5.71;100.00;100317.94;4990906;28;20050;-47
2021/03/21 07:48:22;;;;;;;3.30;2.67;;;;;;;5.74;100.00;100307.91;4990414;28;20066;-46
2021/03/21 07:50:57;;;;;;;4.47;3.40;;;;;;;5.60;100.00;100312.44;4989792;28;20050;-46
2021/03/21 07:53:43;;;;;;;3.42;2.92;;;;;;;5.58;100.00;100305.56;4991754;28;20041;-47
2021/03/21 07:56:16;;;;;;;4.70;3.38;;;;;;;5.64;100.00;100303.28;4987815;28;20042;-48
2021/03/21 07:59:09;;;;;;;3.65;2.95;;;;;;;5.67;100.00;100295.75;4987478;28;20061;-47
2021/03/21 08:01:35;;;;;;;3.78;2.72;;;;;;;5.78;100.00;100303.81;4988611;28;20049;-51
2021/03/21 08:04:23;;;;;;;3.55;2.33;;;;;;;5.80;100.00;100297.97;4989208;28;20109;-47
2021/03/21 08:06:56;;;;;;;;;;;;;;;5.84;100.00;100297.28;4986583;28;20045;-47
2021/03/21 08:09:31;;;;;;;3.85;3.08;;;;;;;5.73;100.00;100297.66;4988852;28;20402;-46
2021/03/21 08:12:05;;;;;;;3.45;2.95;;;;;;;5.83;100.00;100285.41;4987464;28;20042;-45
2021/03/21 08:14:38;;;;;;;3.67;3.38;;;;;;;6.19;100.00;100296.91;4991258;28;20057;-45
2021/03/21 08:17:16;;;;;;;3.50;3.17;;;;;;;6.21;100.00;100291.06;4988524;28;20058;-45
2021/03/21 08:19:43;;;;;;;2.10;1.70;;;;;;;6.08;100.00;100281.25;4986921;28;20046;-45
2021/03/21 08:22:22;;;;;;;1.88;1.70;;;;;;;6.06;100.00;100281.22;4988060;28;20050;-46
2021/03/21 08:24:49;;;;;;;2.03;1.83;;;;;;;6.44;100.00;100281.72;4986829;28;20405;-49
2021/03/21 08:27:26;;;;;;;2.13;1.80;;;;;;;6.27;100.00;100280.25;4988452;28;20349;-45
2021/03/21 08:30:04;;;;;;;1.50;1.17;;;;;;;6.50;100.00;100269.22;4986796;28;20416;-48
2021/03/21 08:32:34;;;;;;;1.90;1.50;;;;;;;6.38;100.00;100273.91;4991060;28;20045;-46
2021/03/21 08:35:21;;;;;;;2.78;1.88;;;;;;;6.47;100.00;100275.88;4987055;28;20057;-48
2021/03/21 08:37:56;;;;;;;3.88;2.90;;;;;;;6.38;100.00;100271.34;4986844;28;20551;-50
2021/03/21 08:40:35;;;;;;;1.70;1.02;;;;;;;6.51;100.00;100270.94;4988330;28;20946;-45
2021/03/21 08:43:09;;;;;;;1.35;1.25;;;;;;;6.50;100.00;100273.44;4986698;28;20639;-49
2021/03/21 08:45:39;;;;;;;0.95;0.95;;;;;;;6.54;100.00;100275.28;4995291;28;20054;-46
2021/03/21 08:48:17;;;;;;;1.88;1.02;;;;;;;6.65;100.00;100284.16;4987900;28;20062;-46
2021/03/21 08:50:59;;;;;;;1.30;1.20;;;;;;;6.93;100.00;100280.00;4985424;28;20317;-46
2021/03/21 08:53:28;;;;;;;1.33;1.23;;;;;;;7.31;100.00;100276.19;4992657;28;20498;-50
2021/03/21 08:56:17;;;;;;;1.80;1.02;;;;;;;7.48;99.61;100269.91;4980016;28;20046;-47
2021/03/21 08:58:46;;;;;;;1.02;0.93;;;;;;;7.65;98.41;100273.88;4996971;28;20046;-47
2021/03/21 09:01:30;;;;;;;0.75;0.75;;;;;;;7.60;97.73;100272.00;4990607;28;20290;-46
2021/03/21 09:04:13;;;;;;;1.30;1.20;;;;;;;7.08;98.39;100267.81;4987657;28;20043;-48
2021/03/21 09:06:42;;;;;;;2.15;1.52;;;;;;;7.21;99.17;100277.56;4991158;28;20061;-46
2021/03/21 09:09:34;;;;;;;2.05;1.05;;;;;;;7.20;99.84;100274.97;4987147;28;20046;-51
2021/03/21 09:12:24;;;;;;;2.25;1.30;;;;;;;7.52;100.00;100273.44;4986941;28;20050;-46
2021/03/21 09:15:11;;;;;;;2.55;1.35;;;;;;;7.86;97.07;100281.31;4986874;28;20046;-47
2021/03/21 09:17:38;;;;;;;1.35;1.02;;;;;;;7.76;95.55;100274.19;4991129;28;20066;-49
2021/03/21 09:20:06;;;;;;;1.77;1.30;;;;;;;7.28;95.37;100287.13;4994127;28;20438;-45
2021/03/21 09:22:37;;;;;;;2.55;1.42;;;;;;;7.31;96.24;100277.06;4993464;28;20046;-47
2021/03/21 09:25:12;;;;;;;4.82;1.50;;;;;;;6.77;97.50;100286.25;4993866;28;20054;-47
2021/03/21 09:27:41;;;;;;;2.55;1.50;;;;;;;6.86;96.87;100301.84;4995821;28;20054;-48
2021/03/21 09:30:21;;;;;;;4.57;1.88;;;;;;;7.07;97.08;100297.50;4995650;28;20042;-49
2021/03/21 09:32:56;;;;;;;4.10;1.42;;;;;;;6.99;96.54;100298.03;4993791;28;20049;-50
2021/03/21 09:35:23;;;;;;;;;;;;;;;6.65;96.40;100299.41;4996153;28;20049;-46
2021/03/21 09:37:54;;;;;;;3.97;1.63;;;;;;;6.83;95.95;100309.38;4994507;28;19929;-47
2021/03/21 09:40:45;;;;;;;5.70;1.48;;;;;;;6.66;97.29;100307.94;4991989;28;20053;-48
2021/03/21 09:43:19;;;;;;;7.18;2.00;;;;;;;6.71;96.28;100306.41;4993457;28;20042;-50
2021/03/21 09:46:11;;;;;;;8.02;2.00;;;;;;;6.50;96.27;100325.19;4994866;28;20153;-49
2021/03/21 09:48:47;;;;;;;5.90;2.20;;;;;;;6.57;98.30;100323.75;4983161;28;20061;-53
2021/03/21 09:51:20;;;;;;;8.60;2.40;;;;;;;6.73;96.80;100323.44;4996273;28;20456;-47
2021/03/21 09:54:09;;;;;;;6.10;2.40;;;;;;;6.51;99.76;100326.03;4994551;28;20068;-47
2021/03/21 09:57:03;;;;;;;9.35;3.40;;;;;;;6.37;98.61;100323.84;4998540;28;20534;-52
2021/03/21 09:59:44;;;;;;;9.82;3.10;;;;;;;6.43;100.00;100330.88;4994837;28;20046;-50
2021/03/21 10:02:26;;;;;;;6.80;2.20;;;;;;;6.84;98.43;100324.72;4996165;28;20494;-50
2021/03/21 10:05:05;;;;;;;16.52;6.95;;;;;;;6.93;95.90;100334.31;4992905;28;20058;-51
2021/03/21 10:07:40;;;;;;;13.35;5.82;;;;;;;6.86;96.81;100329.84;4994807;28;20080;-49
2021/03/21 10:10:21;;;;;;;9.43;3.72;;;;;;;7.15;96.00;100333.38;4993674;28;20054;-51
2021/03/21 10:12:48;;;;;;;11.20;5.55;;;;;;;7.24;95.73;100348.09;4995957;28;20046;-49
2021/03/21 10:15:21;;;;;;;13.82;5.88;;;;;;;7.01;94.86;100334.59;4995819;28;20046;-46
2021/03/21 10:17:50;;;;;;;21.88;8.27;;;;;;;7.27;94.80;100343.97;4993059;28;20045;-47
2021/03/21 10:20:19;;;;;;;22.15;7.68;;;;;;;7.59;93.19;100345.03;4995331;28;20712;-49
2021/03/21 10:22:48;;;;;;;18.23;8.23;;;;;;;6.95;94.90;100345.44;4996043;28;20133;-46
2021/03/21 10:25:15;;;;;;;16.92;7.43;;;;;;;7.31;92.75;100344.94;4993868;28;20050;-51
2021/03/21 10:27:43;;;;;;;9.10;3.83;;;;;;;7.11;93.24;100352.75;4995034;28;20045;-49
2021/03/21 10:30:13;;;;;;;10.13;4.65;;;;;;;6.94;93.69;100341.16;4979364;28;20061;-47
2021/03/21 10:32:49;;;;;;;13.13;3.67;;;;;;;6.85;94.10;100359.53;4995043;28;20420;-48
2021/03/21 10:35:38;;;;;;;12.38;2.80;;;;;;;6.98;93.09;100362.47;4993658;28;20164;-48
2021/03/21 10:38:10;;;;;;;12.73;3.05;;;;;;;6.94;93.82;100356.44;4981951;28;20046;-52
2021/03/21 10:40:40;;;;;;;12.73;3.22;;;;;;;7.16;91.57;100358.00;4995240;28;20042;-49
2021/03/21 10:43:16;;;;;;;12.43;3.72;;;;;;;7.06;92.71;100361.06;4995426;28;20055;-50
2021/03/21 10:45:42;;;;;;;16.45;3.83;;;;;;;7.08;93.26;100364.56;4992391;28;20060;-48
2021/03/21 10:48:30;;;;;;;10.65;3.72;;;;;;;6.95;90.85;100358.16;4993821;28;20050;-46
2021/03/21 10:51:04;;;;;;;10.80;2.83;;;;;;;7.07;90.57;100371.31;4993949;28;20053;-46
2021/03/21 10:53:33;;;;;;;13.23;2.88;;;;;;;7.00;91.59;100371.91;4993138;28;20046;-45
2021/03/21 10:56:16;;;;;;;14.52;3.40;;;;;;;7.06;91.35;100367.03;4994008;28;20499;-46
2021/03/21 10:58:46;;;;;;;13.05;3.33;;;;;;;6.95;91.41;100375.13;4994322;28;20045;-47
2021/03/21 11:01:19;;;;;;;12.82;3.10;;;;;;;6.75;92.94;100388.00;4993182;28;20053;-45
2021/03/21 11:03:58;;;;;;;11.40;2.70;;;;;;;6.68;92.71;100388.59;4991092;28;20129;-46
2021/03/21 11:06:28;;;;;;;23.85;5.05;;;;;;;6.69;92.61;100392.84;4994631;28;20045;-50
2021/03/21 11:08:55;;;;;;;11.48;3.33;;;;;;;6.99;91.98;100393.09;4988425;28;20058;-52
2021/03/21 11:11:24;;;;;;;10.90;3.35;;;;;;;7.07;92.50;100389.16;4990364;28;20042;-48
2021/03/21 11:13:52;;;;;;;12.48;3.55;;;;;;;6.98;91.56;100400.66;4992472;28;20057;-49
2021/03/21 11:16:21;;;;;;;10.15;2.80;;;;;;;6.77;90.85;100406.72;4992347;28;20050;-48
2021/03/21 11:18:54;;;;;;;7.03;3.13;;;;;;;6.42;93.86;100405.41;4991025;28;20050;-48
2021/03/21 11:21:24;;;;;;;12.63;3.20;;;;;;;6.42;93.84;100413.03;4992544;28;20049;-50
2021/03/21 11:23:59;;;;;;;9.57;3.00;;;;;;;6.52;94.92;100420.22;4992305;28;20049;-49
2021/03/21 11:26:25;;;;;;;11.68;4.22;;;;;;;6.19;97.00;100429.97;4992254;28;20053;-49
2021/03/21 11:29:05;;;;;;;14.23;4.15;;;;;;;6.37;95.23;100433.22;4991404;28;20125;-48
2021/03/21 11:31:36;;;;;;;14.75;4.90;;;;;;;6.30;94.55;100422.75;4990746;28;20042;-49
2021/03/21 11:34:25;;;;;;;13.52;5.15;;;;;;;5.97;95.95;100435.91;4991479;28;20053;-45
2021/03/21 11:37:00;;;;;;;14.43;4.70;;;;;;;6.13;95.99;100430.59;4992070;28;20412;-49
2021/03/21 11:39:38;;;;;;;12.40;4.97;;;;;;;6.22;94.59;100429.22;4992079;28;20069;-47
2021/03/21 11:42:18;;;;;;;12.90;4.93;;;;;;;6.19;95.07;100422.31;4992512;28;20057;-51
2021/03/21 11:44:48;;;;;;;12.35;4.47;;;;;;;5.96;93.80;100429.09;4991593;28;20057;-45
2021/03/21 11:47:30;;;;;;;14.07;5.05;;;;;;;6.11;94.16;100432.22;4991559;28;20057;-47
2021/03/21 11:50:01;;;;;;;19.25;4.78;;;;;;;5.95;93.84;100434.94;4991768;28;20096;-50
2021/03/21 11:52:29;;;;;;;15.07;4.30;;;;;;;6.12;94.47;100428.00;4991080;28;20046;-49
2021/03/21 11:55:00;;;;;;;17.88;4.90;;;;;;;5.96;94.22;100435.81;4990978;28;20614;-44
2021/03/21 11:57:55;;;;;;;17.63;4.72;;;;;;;6.21;93.86;100430.91;4990045;28;20065;-48
2021/03/21 12:00:34;;;;;;;12.20;5.00;;;;;;;6.29;94.25;100426.13;4991140;28;20046;-52
2021/03/21 12:03:16;;;;;;;21.08;6.30;;;;;;;6.74;92.61;100423.56;4988881;28;20049;-45
2021/03/21 12:06:29;;;;;;;18.27;4.73;;;;;;;7.33;87.52;100409.53;4994055;28;20042;-50
2021/03/21 12:08:58;;;;;;;22.75;4.85;;;;;;;7.12;86.64;100422.41;4993785;28;20780;-49
2021/03/21 12:11:25;;;;;;;19.17;4.88;;;;;;;7.22;86.47;100423.59;4999385;28;20133;-48
2021/03/21 12:14:18;;;;;;;15.88;3.92;;;;;;;7.13;84.78;100421.59;4991090;28;20046;-47